CSN115 LHBP-LBSF
Flight info
| Callsign | CSN115 |
|---|---|
| Flight time | 1h 0m |
| Altitude | 35000 |
| Route | FAHAZ2B FAHAZ DCT KEROP DCT TISAK DCT RAVAK DCT NISVA NISVA5D |
| Aircraft | B77W/H-SDE1E2E3FGHIJ2J3J4J5M1RWXY/LB1D1 |
Departure
| Time | 2026-05-04 17:32 |
|---|---|
| Airport | Budapest Liszt Ferenc International Airport (LHBP) |
Arrival
| Time | 2026-05-04 18:32 |
|---|---|
| Airport | Sofia Airport (LBSF) |
| Time | Latitude | Longitude | Altitude | Speed | Heading |
|---|---|---|---|---|---|
| 2026-05-04 17:10 | 47.43233 | 19.25780 | 473 ft | 0 kts | 42° |
| 2026-05-04 17:23 | 47.43204 | 19.25741 | 472 ft | 2 kts | 41° |
| 2026-05-04 17:23 | 47.43195 | 19.25730 | 471 ft | 0 kts | 41° |
| 2026-05-04 17:23 | 47.43170 | 19.25717 | 471 ft | 2 kts | 342° |
| 2026-05-04 17:24 | 47.43159 | 19.25727 | 471 ft | 0 kts | 314° |
| 2026-05-04 17:24 | 47.43155 | 19.25732 | 471 ft | 0 kts | 312° |
| 2026-05-04 17:26 | 47.43183 | 19.25686 | 470 ft | 5 kts | 312° |
| 2026-05-04 17:27 | 47.43308 | 19.25483 | 471 ft | 16 kts | 313° |
| 2026-05-04 17:27 | 47.43496 | 19.25379 | 473 ft | 17 kts | 37° |
| 2026-05-04 17:28 | 47.43675 | 19.25617 | 480 ft | 16 kts | 46° |
| 2026-05-04 17:29 | 47.43938 | 19.25968 | 487 ft | 17 kts | 42° |
| 2026-05-04 17:29 | 47.44217 | 19.25718 | 492 ft | 18 kts | 310° |
| 2026-05-04 17:30 | 47.44448 | 19.25590 | 499 ft | 12 kts | 34° |
| 2026-05-04 17:31 | 47.44473 | 19.25860 | 497 ft | 19 kts | 130° |
| 2026-05-04 17:31 | 47.42813 | 19.28646 | 825 ft | 194 kts | 128° |
| 2026-05-04 17:32 | 47.41126 | 19.31192 | 1945 ft | 182 kts | 126° |
| 2026-05-04 17:33 | 47.39335 | 19.37197 | 2981 ft | 241 kts | 123° |
| 2026-05-04 17:33 | 47.38455 | 19.39380 | 3172 ft | 251 kts | 126° |
| 2026-05-04 17:34 | 47.33792 | 19.41533 | 4820 ft | 262 kts | 202° |
| 2026-05-04 17:34 | 47.32331 | 19.39952 | 5806 ft | 266 kts | 228° |
| 2026-05-04 17:35 | 47.29533 | 19.32301 | 7842 ft | 306 kts | 242° |
| 2026-05-04 17:35 | 47.27534 | 19.26432 | 9241 ft | 329 kts | 242° |
| 2026-05-04 17:35 | 47.26503 | 19.23408 | 10069 ft | 335 kts | 242° |
| 2026-05-04 17:36 | 47.25458 | 19.20348 | 10951 ft | 340 kts | 242° |
| 2026-05-04 17:36 | 47.24321 | 19.17289 | 11793 ft | 344 kts | 237° |
| 2026-05-04 17:36 | 47.22957 | 19.14424 | 12691 ft | 348 kts | 231° |
| 2026-05-04 17:36 | 47.21342 | 19.11747 | 13534 ft | 352 kts | 224° |
| 2026-05-04 17:37 | 47.19523 | 19.09360 | 14332 ft | 356 kts | 218° |
| 2026-05-04 17:37 | 47.17480 | 19.07261 | 15158 ft | 360 kts | 211° |
| 2026-05-04 17:37 | 47.15218 | 19.05493 | 15961 ft | 365 kts | 204° |
| 2026-05-04 17:37 | 47.12847 | 19.04152 | 16701 ft | 371 kts | 197° |
| 2026-05-04 17:38 | 47.10303 | 19.03226 | 17481 ft | 376 kts | 190° |
| 2026-05-04 17:38 | 47.07677 | 19.02755 | 17976 ft | 383 kts | 184° |
| 2026-05-04 17:38 | 47.05029 | 19.02837 | 18063 ft | 382 kts | 173° |
| 2026-05-04 17:38 | 47.02449 | 19.03681 | 18289 ft | 383 kts | 161° |
| 2026-05-04 17:39 | 46.97625 | 19.07136 | 18802 ft | 386 kts | 151° |
| 2026-05-04 17:39 | 46.95225 | 19.09062 | 19492 ft | 390 kts | 151° |
| 2026-05-04 17:39 | 46.92875 | 19.10946 | 20509 ft | 386 kts | 151° |
| 2026-05-04 17:40 | 46.90513 | 19.12839 | 20929 ft | 398 kts | 150° |
| 2026-05-04 17:40 | 46.88013 | 19.14840 | 21229 ft | 412 kts | 150° |
| 2026-05-04 17:40 | 46.85428 | 19.16906 | 21487 ft | 428 kts | 150° |
| 2026-05-04 17:40 | 46.82782 | 19.19019 | 21716 ft | 443 kts | 150° |
| 2026-05-04 17:41 | 46.80044 | 19.21203 | 22151 ft | 452 kts | 150° |
| 2026-05-04 17:41 | 46.77271 | 19.23412 | 23016 ft | 451 kts | 150° |
| 2026-05-04 17:41 | 46.74511 | 19.25608 | 23848 ft | 450 kts | 150° |
| 2026-05-04 17:41 | 46.71763 | 19.27792 | 24405 ft | 456 kts | 150° |
| 2026-05-04 17:42 | 46.68929 | 19.30042 | 24820 ft | 465 kts | 150° |
| 2026-05-04 17:42 | 46.66065 | 19.32313 | 25325 ft | 471 kts | 150° |
| 2026-05-04 17:42 | 46.63161 | 19.34612 | 25900 ft | 474 kts | 150° |
| 2026-05-04 17:42 | 46.60372 | 19.36818 | 26407 ft | 479 kts | 150° |
| 2026-05-04 17:43 | 46.57378 | 19.39183 | 26921 ft | 484 kts | 150° |
| 2026-05-04 17:43 | 46.54399 | 19.41534 | 27428 ft | 488 kts | 150° |
| 2026-05-04 17:43 | 46.51417 | 19.43883 | 27919 ft | 493 kts | 150° |
| 2026-05-04 17:43 | 46.48548 | 19.46141 | 28367 ft | 497 kts | 150° |
| 2026-05-04 17:44 | 46.45499 | 19.48538 | 28842 ft | 502 kts | 150° |
| 2026-05-04 17:44 | 46.42397 | 19.50972 | 29313 ft | 506 kts | 150° |
| 2026-05-04 17:44 | 46.39306 | 19.53396 | 29748 ft | 511 kts | 150° |
| 2026-05-04 17:44 | 46.36126 | 19.55886 | 30213 ft | 514 kts | 150° |
| 2026-05-04 17:45 | 46.32988 | 19.58339 | 30697 ft | 517 kts | 150° |
| 2026-05-04 17:45 | 46.29828 | 19.60806 | 31408 ft | 515 kts | 150° |
| 2026-05-04 17:45 | 46.26648 | 19.63285 | 32225 ft | 511 kts | 150° |
| 2026-05-04 17:45 | 46.23552 | 19.65696 | 32971 ft | 508 kts | 151° |
| 2026-05-04 17:46 | 46.20732 | 19.67889 | 33523 ft | 508 kts | 151° |
| 2026-05-04 17:46 | 46.17582 | 19.70333 | 34102 ft | 508 kts | 152° |
| 2026-05-04 17:46 | 46.14442 | 19.72590 | 34716 ft | 506 kts | 153° |
| 2026-05-04 17:46 | 46.11266 | 19.74809 | 35022 ft | 509 kts | 153° |
| 2026-05-04 17:47 | 46.04895 | 19.79258 | 35059 ft | 506 kts | 153° |
| 2026-05-04 17:47 | 45.98597 | 19.83661 | 35058 ft | 506 kts | 153° |
| 2026-05-04 17:48 | 45.92272 | 19.88080 | 35057 ft | 506 kts | 153° |
| 2026-05-04 17:48 | 45.85954 | 19.92486 | 35054 ft | 506 kts | 153° |
| 2026-05-04 17:49 | 45.79622 | 19.96895 | 35051 ft | 507 kts | 153° |
| 2026-05-04 17:49 | 45.73291 | 20.01292 | 35051 ft | 507 kts | 153° |
| 2026-05-04 17:50 | 45.66955 | 20.05683 | 35059 ft | 507 kts | 153° |
| 2026-05-04 17:50 | 45.60644 | 20.10045 | 35055 ft | 507 kts | 153° |
| 2026-05-04 17:51 | 45.54516 | 20.14272 | 35062 ft | 508 kts | 153° |
| 2026-05-04 17:51 | 45.48170 | 20.18637 | 35062 ft | 508 kts | 153° |
| 2026-05-04 17:52 | 45.41797 | 20.23010 | 35055 ft | 507 kts | 153° |
| 2026-05-04 17:52 | 45.35714 | 20.27942 | 35062 ft | 507 kts | 147° |
| 2026-05-04 17:53 | 45.29662 | 20.33070 | 35060 ft | 507 kts | 147° |
| 2026-05-04 17:53 | 45.23632 | 20.38128 | 35068 ft | 508 kts | 148° |
| 2026-05-04 17:54 | 45.17542 | 20.43200 | 35067 ft | 509 kts | 148° |
| 2026-05-04 17:54 | 45.11360 | 20.48324 | 35071 ft | 524 kts | 148° |
| 2026-05-04 17:55 | 45.05003 | 20.53571 | 35080 ft | 533 kts | 148° |
| 2026-05-04 17:55 | 44.98589 | 20.58846 | 35079 ft | 535 kts | 148° |
| 2026-05-04 17:56 | 44.92158 | 20.64119 | 35082 ft | 536 kts | 148° |
| 2026-05-04 17:56 | 44.85760 | 20.69351 | 35075 ft | 536 kts | 148° |
| 2026-05-04 17:57 | 44.79305 | 20.74614 | 35075 ft | 536 kts | 148° |
| 2026-05-04 17:57 | 44.72852 | 20.79863 | 35076 ft | 536 kts | 148° |
| 2026-05-04 17:58 | 44.66421 | 20.85080 | 35084 ft | 536 kts | 148° |
| 2026-05-04 17:58 | 44.59958 | 20.90309 | 35089 ft | 536 kts | 148° |
| 2026-05-04 17:59 | 44.53531 | 20.95495 | 35091 ft | 536 kts | 148° |
| 2026-05-04 18:00 | 44.43823 | 21.03305 | 35096 ft | 536 kts | 148° |
| 2026-05-04 18:00 | 44.37397 | 21.08457 | 35099 ft | 536 kts | 148° |
| 2026-05-04 18:01 | 44.30931 | 21.13627 | 35106 ft | 536 kts | 148° |
| 2026-05-04 18:01 | 44.24475 | 21.18778 | 35108 ft | 536 kts | 148° |
| 2026-05-04 18:02 | 44.14772 | 21.26493 | 35107 ft | 535 kts | 148° |
| 2026-05-04 18:02 | 44.08355 | 21.31579 | 35109 ft | 535 kts | 148° |
| 2026-05-04 18:03 | 44.01859 | 21.36715 | 35113 ft | 535 kts | 148° |
| 2026-05-04 18:03 | 43.95389 | 21.41818 | 35112 ft | 535 kts | 148° |
| 2026-05-04 18:04 | 43.88959 | 21.46875 | 35114 ft | 534 kts | 148° |
| 2026-05-04 18:05 | 43.79263 | 21.54479 | 35110 ft | 534 kts | 148° |
| 2026-05-04 18:05 | 43.72853 | 21.59490 | 35111 ft | 534 kts | 148° |
| 2026-05-04 18:06 | 43.64620 | 21.69419 | 35088 ft | 527 kts | 127° |
| 2026-05-04 18:06 | 43.62287 | 21.73326 | 34808 ft | 529 kts | 127° |
| 2026-05-04 18:06 | 43.59974 | 21.77208 | 34353 ft | 528 kts | 127° |
| 2026-05-04 18:07 | 43.57660 | 21.81078 | 33840 ft | 522 kts | 127° |
| 2026-05-04 18:07 | 43.55343 | 21.84942 | 33328 ft | 515 kts | 127° |
| 2026-05-04 18:07 | 43.53079 | 21.88708 | 32821 ft | 507 kts | 127° |
| 2026-05-04 18:07 | 43.50880 | 21.92359 | 32333 ft | 497 kts | 128° |
| 2026-05-04 18:08 | 43.48671 | 21.96021 | 31829 ft | 488 kts | 128° |
| 2026-05-04 18:08 | 43.46530 | 21.99563 | 31325 ft | 480 kts | 128° |
| 2026-05-04 18:08 | 43.44432 | 22.03028 | 30835 ft | 472 kts | 129° |
| 2026-05-04 18:08 | 43.42369 | 22.06433 | 30331 ft | 465 kts | 130° |
| 2026-05-04 18:09 | 43.38299 | 22.13133 | 29253 ft | 457 kts | 130° |
| 2026-05-04 18:09 | 43.34215 | 22.19834 | 28169 ft | 456 kts | 130° |
| 2026-05-04 18:10 | 43.32210 | 22.23120 | 27636 ft | 454 kts | 130° |
| 2026-05-04 18:10 | 43.30182 | 22.26438 | 27094 ft | 451 kts | 130° |
| 2026-05-04 18:10 | 43.28166 | 22.29732 | 26556 ft | 448 kts | 130° |
| 2026-05-04 18:10 | 43.26179 | 22.32976 | 26024 ft | 445 kts | 129° |
| 2026-05-04 18:11 | 43.24198 | 22.36206 | 25489 ft | 442 kts | 129° |
| 2026-05-04 18:11 | 43.22230 | 22.39411 | 24959 ft | 440 kts | 129° |
| 2026-05-04 18:11 | 43.20261 | 22.42615 | 24427 ft | 438 kts | 129° |
| 2026-05-04 18:11 | 43.18299 | 22.45804 | 23895 ft | 437 kts | 129° |
| 2026-05-04 18:12 | 43.16359 | 22.48953 | 23376 ft | 435 kts | 129° |
| 2026-05-04 18:12 | 43.14413 | 22.52107 | 22919 ft | 430 kts | 128° |
| 2026-05-04 18:12 | 43.12489 | 22.55223 | 22796 ft | 419 kts | 128° |
| 2026-05-04 18:12 | 43.10610 | 22.58264 | 22933 ft | 419 kts | 128° |
| 2026-05-04 18:13 | 43.08715 | 22.61328 | 23087 ft | 418 kts | 128° |
| 2026-05-04 18:13 | 43.06836 | 22.64363 | 23142 ft | 420 kts | 128° |
| 2026-05-04 18:13 | 43.03049 | 22.70469 | 23144 ft | 419 kts | 129° |
| 2026-05-04 18:14 | 43.01147 | 22.73531 | 23141 ft | 420 kts | 129° |
| 2026-05-04 18:14 | 42.99265 | 22.76557 | 23108 ft | 420 kts | 129° |
| 2026-05-04 18:14 | 42.97406 | 22.79616 | 22671 ft | 422 kts | 126° |
| 2026-05-04 18:15 | 42.94244 | 22.86267 | 21584 ft | 413 kts | 120° |
| 2026-05-04 18:15 | 42.91212 | 22.92858 | 20225 ft | 408 kts | 119° |
| 2026-05-04 18:15 | 42.89961 | 22.96201 | 19520 ft | 392 kts | 110° |
| 2026-05-04 18:16 | 42.89116 | 22.99672 | 18874 ft | 375 kts | 101° |
| 2026-05-04 18:16 | 42.88670 | 23.03111 | 18232 ft | 360 kts | 93° |
| 2026-05-04 18:16 | 42.88458 | 23.06417 | 17742 ft | 346 kts | 92° |
| 2026-05-04 18:17 | 42.88074 | 23.12724 | 16783 ft | 322 kts | 92° |
| 2026-05-04 18:17 | 42.87817 | 23.15719 | 16298 ft | 315 kts | 98° |
| 2026-05-04 18:17 | 42.86425 | 23.21301 | 15315 ft | 313 kts | 113° |
| 2026-05-04 18:18 | 42.85280 | 23.23819 | 14809 ft | 313 kts | 123° |
| 2026-05-04 18:18 | 42.83790 | 23.25986 | 14304 ft | 314 kts | 134° |
| 2026-05-04 18:18 | 42.82017 | 23.27700 | 13782 ft | 315 kts | 146° |
| 2026-05-04 18:18 | 42.80008 | 23.28902 | 13266 ft | 313 kts | 159° |
| 2026-05-04 18:19 | 42.75777 | 23.28249 | 12266 ft | 317 kts | 210° |
| 2026-05-04 18:19 | 42.74155 | 23.26269 | 11739 ft | 314 kts | 236° |
| 2026-05-04 18:19 | 42.73278 | 23.23581 | 11271 ft | 303 kts | 261° |
| 2026-05-04 18:20 | 42.73302 | 23.20796 | 10740 ft | 292 kts | 289° |
| 2026-05-04 18:20 | 42.73976 | 23.18244 | 10253 ft | 286 kts | 297° |
| 2026-05-04 18:20 | 42.74807 | 23.15796 | 9795 ft | 282 kts | 306° |
| 2026-05-04 18:20 | 42.75946 | 23.13658 | 9307 ft | 286 kts | 312° |
| 2026-05-04 18:21 | 42.77191 | 23.11508 | 8796 ft | 292 kts | 312° |
| 2026-05-04 18:21 | 42.78451 | 23.09337 | 8309 ft | 292 kts | 310° |
| 2026-05-04 18:21 | 42.79480 | 23.06947 | 7988 ft | 287 kts | 295° |
| 2026-05-04 18:21 | 42.80030 | 23.04459 | 8008 ft | 272 kts | 283° |
| 2026-05-04 18:22 | 42.80251 | 23.01934 | 7936 ft | 262 kts | 278° |
| 2026-05-04 18:22 | 42.80436 | 22.99470 | 7808 ft | 259 kts | 278° |
| 2026-05-04 18:22 | 42.80595 | 22.97041 | 7683 ft | 256 kts | 277° |
| 2026-05-04 18:22 | 42.80622 | 22.94592 | 7549 ft | 256 kts | 261° |
| 2026-05-04 18:23 | 42.79914 | 22.92411 | 7400 ft | 246 kts | 231° |
| 2026-05-04 18:23 | 42.78627 | 22.91029 | 7260 ft | 232 kts | 202° |
| 2026-05-04 18:23 | 42.77085 | 22.90582 | 7124 ft | 221 kts | 175° |
| 2026-05-04 18:23 | 42.75653 | 22.91031 | 7041 ft | 203 kts | 149° |
| 2026-05-04 18:24 | 42.74553 | 22.92128 | 7032 ft | 192 kts | 127° |
| 2026-05-04 18:24 | 42.73781 | 22.93574 | 7035 ft | 188 kts | 119° |
| 2026-05-04 18:24 | 42.73053 | 22.95055 | 7035 ft | 187 kts | 119° |
| 2026-05-04 18:24 | 42.72412 | 22.96607 | 6838 ft | 188 kts | 105° |
| 2026-05-04 18:25 | 42.72153 | 22.98312 | 6553 ft | 182 kts | 92° |
| 2026-05-04 18:25 | 42.72057 | 23.00034 | 6251 ft | 182 kts | 90° |
| 2026-05-04 18:25 | 42.71972 | 23.01737 | 6040 ft | 177 kts | 90° |
| 2026-05-04 18:25 | 42.71885 | 23.03401 | 6044 ft | 179 kts | 90° |
| 2026-05-04 18:26 | 42.71792 | 23.05097 | 6037 ft | 181 kts | 91° |
| 2026-05-04 18:26 | 42.71695 | 23.06805 | 6038 ft | 181 kts | 91° |
| 2026-05-04 18:26 | 42.71595 | 23.08512 | 6037 ft | 181 kts | 91° |
| 2026-05-04 18:26 | 42.71497 | 23.10225 | 5991 ft | 183 kts | 91° |
| 2026-05-04 18:27 | 42.71396 | 23.11964 | 5747 ft | 182 kts | 91° |
| 2026-05-04 18:27 | 42.71298 | 23.13661 | 5520 ft | 181 kts | 90° |
| 2026-05-04 18:27 | 42.71200 | 23.15362 | 5295 ft | 181 kts | 91° |
| 2026-05-04 18:27 | 42.71101 | 23.17070 | 5060 ft | 180 kts | 91° |
| 2026-05-04 18:28 | 42.71002 | 23.18769 | 4824 ft | 180 kts | 91° |
| 2026-05-04 18:28 | 42.70904 | 23.20456 | 4588 ft | 180 kts | 91° |
| 2026-05-04 18:28 | 42.70805 | 23.22156 | 4349 ft | 180 kts | 91° |
| 2026-05-04 18:28 | 42.70705 | 23.23870 | 4107 ft | 180 kts | 91° |
| 2026-05-04 18:29 | 42.70607 | 23.25553 | 3867 ft | 180 kts | 91° |
| 2026-05-04 18:29 | 42.70507 | 23.27238 | 3626 ft | 176 kts | 91° |
| 2026-05-04 18:29 | 42.70411 | 23.28874 | 3391 ft | 172 kts | 91° |
| 2026-05-04 18:29 | 42.70317 | 23.30478 | 3163 ft | 172 kts | 91° |
| 2026-05-04 18:30 | 42.70131 | 23.33590 | 2711 ft | 147 kts | 92° |
| 2026-05-04 18:30 | 42.70060 | 23.34926 | 2469 ft | 141 kts | 92° |
| 2026-05-04 18:30 | 42.69990 | 23.36308 | 2244 ft | 148 kts | 94° |
| 2026-05-04 18:31 | 42.69873 | 23.37703 | 2105 ft | 152 kts | 95° |
| 2026-05-04 18:31 | 42.69784 | 23.39149 | 1946 ft | 149 kts | 94° |
| 2026-05-04 18:31 | 42.69708 | 23.40545 | 1810 ft | 145 kts | 94° |
| 2026-05-04 18:31 | 42.69638 | 23.41756 | 1760 ft | 108 kts | 92° |
| 2026-05-04 18:32 | 42.69569 | 23.42588 | 1757 ft | 59 kts | 118° |
| 2026-05-04 18:32 | 42.69416 | 23.42727 | 1758 ft | 0 kts | 217° |
| 2026-05-04 18:33 | 42.69410 | 23.42719 | 1758 ft | 2 kts | 226° |
| 2026-05-04 18:33 | 42.69400 | 23.42690 | 1758 ft | 5 kts | 267° |
| 2026-05-04 18:33 | 42.69402 | 23.42621 | 1758 ft | 8 kts | 272° |
| 2026-05-04 18:33 | 42.69405 | 23.42532 | 1760 ft | 10 kts | 273° |
| 2026-05-04 18:34 | 42.69411 | 23.42430 | 1762 ft | 11 kts | 274° |
| 2026-05-04 18:34 | 42.69418 | 23.42312 | 1762 ft | 13 kts | 274° |
| 2026-05-04 18:34 | 42.69426 | 23.42171 | 1762 ft | 17 kts | 274° |
| 2026-05-04 18:34 | 42.69436 | 23.41988 | 1761 ft | 22 kts | 274° |
| 2026-05-04 18:35 | 42.69456 | 23.41763 | 1762 ft | 24 kts | 276° |
| 2026-05-04 18:35 | 42.69440 | 23.41543 | 1762 ft | 24 kts | 214° |
| 2026-05-04 18:35 | 42.69291 | 23.41520 | 1762 ft | 16 kts | 169° |
| 2026-05-04 18:35 | 42.69202 | 23.41549 | 1761 ft | 10 kts | 165° |
| 2026-05-04 18:36 | 42.69146 | 23.41530 | 1761 ft | 8 kts | 226° |
| 2026-05-04 18:36 | 42.69136 | 23.41484 | 1762 ft | 1 kts | 274° |
| 2026-05-04 18:36 | 42.69139 | 23.41466 | 1762 ft | 2 kts | 282° |
| 2026-05-04 18:36 | 42.69138 | 23.41450 | 1763 ft | 0 kts | 250° |
| 2026-05-04 18:37 | 42.69136 | 23.41445 | 1763 ft | 0 kts | 249° |